Time;durP1;ratioP1;P1;durP2;ratioP2;P2;SDS_P1;SDS_P2;PMS_P1;PMS_P2;Temp;Humidity;BMP_temperature;BMP_pressure;BME280_temperature;BME280_humidity;BME280_pressure;Samples;Min_cycle;Max_cycle;Signal;HPM_P1;HPM_P2
2024/03/19 00:01:34;;;;;;;;;;;;;;;15.53;47.48;100469.44;5035920;28;1894;-46
2024/03/19 00:03:59;;;;;;;;;;;;;;;16.46;48.39;100460.88;5036176;28;1086;-47
2024/03/19 00:06:25;;;;;;;;;;;;;;;16.26;48.05;100465.91;5035021;28;1026;-47
2024/03/19 00:08:51;;;;;;;;;;;;;;;15.86;47.70;100460.91;5036212;28;1108;-46
2024/03/19 00:11:18;;;;;;;;;;;;;;;15.44;47.11;100456.88;5035967;28;1159;-47
2024/03/19 00:13:44;;;;;;;;;;;;;;;16.99;47.52;100459.44;5038094;28;1140;-46
2024/03/19 00:16:10;;;;;;;;;;;;;;;15.84;47.89;100450.44;5039815;28;1077;-44
2024/03/19 00:18:35;;;;;;;;;;;;;;;15.61;47.77;100454.78;5039235;28;1015;-46
2024/03/19 00:21:01;;;;;;;;;;;;;;;15.44;47.07;100443.63;5039183;28;1898;-45
2024/03/19 00:23:27;;;;;;;;;;;;;;;15.72;47.87;100449.53;5039899;28;1112;-44
2024/03/19 00:25:52;;;;;;;;;;;;;;;17.18;46.51;100455.34;5039673;28;1115;-47
2024/03/19 00:28:18;;;;;;;;;;;;;;;15.85;47.95;100448.63;5039175;28;2397;-48
2024/03/19 00:30:44;;;;;;;;;;;;;;;15.51;47.71;100450.19;5039163;28;1007;-49
2024/03/19 00:33:10;;;;;;;;;;;;;;;15.76;48.31;100443.06;5039627;28;1103;-50
2024/03/19 00:35:40;;;;;;;;;;;;;;;16.85;47.04;100443.75;5039288;28;1080;-45
2024/03/19 00:38:05;;;;;;;;;;;;;;;15.84;48.21;100438.97;5039303;28;1154;-43
2024/03/19 00:40:31;;;;;;;;;;;;;;;15.59;47.01;100436.34;5038866;28;1906;-48
2024/03/19 00:42:57;;;;;;;;;;;;;;;17.08;46.98;100430.44;5039032;28;1036;-44
2024/03/19 00:45:23;;;;;;;;;;;;;;;15.94;48.25;100425.84;5039275;28;1017;-45
2024/03/19 00:47:48;;;;;;;;;;;;;;;15.67;47.14;100420.72;5039206;28;1047;-48
2024/03/19 00:50:14;;;;;;;;;;;;;;;15.46;46.46;100430.25;5039146;28;980;-46
2024/03/19 00:52:40;;;;;;;;;;;;;;;15.37;45.89;100422.00;5039239;28;1040;-47
2024/03/19 00:55:05;;;;;;;;;;;;;;;15.14;45.89;100423.69;5038371;28;1144;-46
2024/03/19 00:57:32;;;;;;;;;;;;;;;15.09;45.33;100423.16;5034102;28;2525;-46
2024/03/19 00:59:57;;;;;;;;;;;;;;;16.61;47.16;100429.63;5037547;28;1980;-45
2024/03/19 01:02:23;;;;;;;;;;;;;;;15.56;48.02;100420.66;5038677;28;1012;-49
2024/03/19 01:04:49;;;;;;;;;;;;;;;15.26;47.24;100422.81;5038683;28;1144;-46
2024/03/19 01:07:15;;;;;;;;;;;;;;;15.07;46.87;100423.28;5038419;28;1095;-45
2024/03/19 01:09:40;;;;;;;;;;;;;;;16.87;46.59;100416.09;5038518;28;1079;-46
2024/03/19 01:12:08;;;;;;;;;;;;;;;15.64;47.94;100413.00;5038628;28;1124;-47
2024/03/19 01:14:34;;;;;;;;;;;;;;;15.34;47.67;100414.28;5038527;28;1084;-47
2024/03/19 01:17:00;;;;;;;;;;;;;;;15.16;46.88;100413.81;5038777;28;1088;-45
2024/03/19 01:19:25;;;;;;;;;;;;;;;16.26;47.54;100410.19;5038372;28;1067;-46
2024/03/19 01:21:51;;;;;;;;;;;;;;;17.61;45.98;100402.28;5038361;28;1909;-43
2024/03/19 01:24:16;;;;;;;;;;;;;;;16.18;47.71;100398.44;5038363;28;1181;-47
2024/03/19 01:26:42;;;;;;;;;;;;;;;15.54;48.08;100399.56;5020545;28;1099;-46
2024/03/19 01:29:07;;;;;;;;;;;;;;;15.45;47.23;100400.22;5038277;28;2694;-46
2024/03/19 01:31:33;;;;;;;;;;;;;;;15.29;46.49;100396.06;5038351;28;947;-43
2024/03/19 01:33:59;;;;;;;;;;;;;;;16.62;48.03;100396.78;5038395;28;1141;-46
2024/03/19 01:36:24;;;;;;;;;;;;;;;15.87;48.36;100391.84;5038247;28;1132;-47
2024/03/19 01:38:50;;;;;;;;;;;;;;;15.45;47.74;100380.84;5037844;28;1212;-45
2024/03/19 01:41:16;;;;;;;;;;;;;;;15.29;47.13;100369.56;5037969;28;1886;-47
2024/03/19 01:43:42;;;;;;;;;;;;;;;17.07;47.09;100376.44;5037868;28;1009;-45
2024/03/19 01:46:08;;;;;;;;;;;;;;;16.02;48.08;100389.00;5037948;28;1527;-46
2024/03/19 01:48:33;;;;;;;;;;;;;;;15.52;48.10;100382.94;5038186;28;1112;-47
2024/03/19 01:51:02;;;;;;;;;;;;;;;15.34;47.41;100381.63;5037619;28;1051;-48
2024/03/19 01:53:27;;;;;;;;;;;;;;;15.17;46.75;100379.28;5020280;28;1164;-43
2024/03/19 01:55:53;;;;;;;;;;;;;;;16.87;47.55;100378.03;5037705;28;1038;-45
2024/03/19 01:58:19;;;;;;;;;;;;;;;16.26;48.21;100375.66;5037643;28;2519;-47
2024/03/19 02:00:44;;;;;;;;;;;;;;;15.63;47.95;100376.81;5020162;28;2011;-47
2024/03/19 02:03:13;;;;;;;;;;;;;;;15.55;48.26;100369.44;5020159;28;1103;-45
2024/03/19 02:05:38;;;;;;;;;;;;;;;16.97;47.10;100370.16;5038057;28;1211;-45
2024/03/19 02:08:05;;;;;;;;;;;;;;;15.91;47.93;100369.41;5037410;28;1175;-48
2024/03/19 02:10:30;;;;;;;;;;;;;;;15.48;47.53;100370.84;5037426;28;1205;-48
2024/03/19 02:12:56;;;;;;;;;;;;;;;17.30;46.93;100367.59;5037220;28;999;-48
2024/03/19 02:15:21;;;;;;;;;;;;;;;16.07;48.19;100370.06;5037691;28;1084;-49
2024/03/19 02:17:47;;;;;;;;;;;;;;;15.64;47.76;100375.88;5037494;28;1009;-45
2024/03/19 02:20:12;;;;;;;;;;;;;;;15.48;46.98;100373.50;5037299;28;1983;-46
2024/03/19 02:22:40;;;;;;;;;;;;;;;15.30;46.52;100365.09;5037012;28;1032;-45
2024/03/19 02:25:06;;;;;;;;;;;;;;;16.54;47.90;100370.00;5037761;28;1087;-45
2024/03/19 02:27:32;;;;;;;;;;;;;;;15.76;48.31;100371.44;5037143;28;2521;-48
2024/03/19 02:29:58;;;;;;;;;;;;;;;15.39;47.83;100364.44;5037161;28;1115;-48
2024/03/19 02:32:24;;;;;;;;;;;;;;;15.25;46.69;100368.09;5036647;28;1075;-47
2024/03/19 02:34:50;;;;;;;;;;;;;;;15.89;48.13;100371.34;5037097;28;1014;-45
2024/03/19 02:37:16;;;;;;;;;;;;;;;15.87;47.88;100375.06;5036176;28;1055;-48
2024/03/19 02:39:43;;;;;;;;;;;;;;;15.41;47.59;100374.94;5036709;28;1963;-49
2024/03/19 02:42:09;;;;;;;;;;;;;;;15.27;46.92;100384.75;5036631;28;1075;-49
2024/03/19 02:44:34;;;;;;;;;;;;;;;16.78;47.28;100379.63;5037038;28;860;-51
2024/03/19 02:47:00;;;;;;;;;;;;;;;16.34;47.64;100369.75;5036647;28;1001;-48
2024/03/19 02:49:26;;;;;;;;;;;;;;;15.66;48.11;100370.44;5037083;28;1044;-51
2024/03/19 02:51:51;;;;;;;;;;;;;;;15.36;47.23;100371.78;5036847;28;992;-46
2024/03/19 02:54:17;;;;;;;;;;;;;;;15.99;48.18;100368.88;5037010;28;1147;-46
2024/03/19 02:56:42;;;;;;;;;;;;;;;17.24;46.56;100369.78;5036208;28;1004;-43
2024/03/19 02:59:08;;;;;;;;;;;;;;;15.94;47.91;100378.97;5035042;28;2208;-47
2024/03/19 03:01:33;;;;;;;;;;;;;;;17.49;47.08;100380.19;5036829;28;1979;-47
2024/03/19 03:03:59;;;;;;;;;;;;;;;17.01;47.17;100376.94;5036454;28;1043;-43
2024/03/19 03:06:25;;;;;;;;;;;;;;;16.10;48.09;100376.00;5036726;28;1107;-47
2024/03/19 03:08:51;;;;;;;;;;;;;;;15.90;47.14;100374.81;5036613;28;938;-46
2024/03/19 03:11:16;;;;;;;;;;;;;;;15.63;46.72;100371.50;5036647;28;1075;-46
2024/03/19 03:13:42;;;;;;;;;;;;;;;15.51;46.45;100375.94;5036374;28;1095;-46
2024/03/19 03:16:08;;;;;;;;;;;;;;;15.38;46.05;100372.50;5018790;28;1134;-45
2024/03/19 03:18:34;;;;;;;;;;;;;;;15.19;45.54;100376.50;5036765;28;1126;-49
2024/03/19 03:21:00;;;;;;;;;;;;;;;15.53;46.57;100370.53;5036324;28;1902;-47
2024/03/19 03:23:25;;;;;;;;;;;;;;;17.13;47.53;100377.78;5036187;28;1087;-45
2024/03/19 03:25:52;;;;;;;;;;;;;;;16.12;48.39;100362.59;5036046;28;1111;-49
2024/03/19 03:28:17;;;;;;;;;;;;;;;15.65;47.99;100364.28;5036827;28;1103;-45
2024/03/19 03:30:43;;;;;;;;;;;;;;;15.49;47.20;100367.25;5036587;28;1118;-46
2024/03/19 03:33:08;;;;;;;;;;;;;;;15.28;46.38;100357.25;5035734;28;900;-43
2024/03/19 03:35:34;;;;;;;;;;;;;;;15.48;47.44;100360.25;5036056;28;1139;-47
2024/03/19 03:37:59;;;;;;;;;;;;;;;16.61;47.21;100367.69;5036443;28;1570;-45
2024/03/19 03:40:27;;;;;;;;;;;;;;;15.59;48.27;100367.41;5036064;28;1971;-46
2024/03/19 03:42:52;;;;;;;;;;;;;;;16.96;47.58;100364.03;5036558;28;1106;-44
2024/03/19 03:45:19;;;;;;;;;;;;;;;16.37;48.36;100360.69;5035369;28;1033;-47
2024/03/19 03:47:45;;;;;;;;;;;;;;;15.75;47.91;100356.47;5036943;28;1036;-48
2024/03/19 03:50:11;;;;;;;;;;;;;;;16.10;48.84;100361.91;5040241;28;1071;-48
2024/03/19 03:52:37;;;;;;;;;;;;;;;16.69;47.99;100356.44;5040470;28;1084;-51
2024/03/19 03:55:04;;;;;;;;;;;;;;;15.86;48.18;100355.69;5039974;28;1043;-47
2024/03/19 03:57:31;;;;;;;;;;;;;;;15.66;47.53;100359.84;5022566;28;943;-47
2024/03/19 03:59:57;;;;;;;;;;;;;;;15.47;46.60;100355.06;5040159;28;1910;-49
2024/03/19 04:02:23;;;;;;;;;;;;;;;15.35;45.92;100349.72;5040165;28;1032;-45
2024/03/19 04:04:50;;;;;;;;;;;;;;;16.42;47.84;100350.56;5039794;28;1064;-46
2024/03/19 04:07:16;;;;;;;;;;;;;;;16.74;47.47;100343.66;5005607;28;1016;-46
2024/03/19 04:09:41;;;;;;;;;;;;;;;15.77;48.28;100346.59;5039583;28;906;-47
2024/03/19 04:12:07;;;;;;;;;;;;;;;15.61;47.55;100354.88;5040115;28;1009;-43
2024/03/19 04:14:33;;;;;;;;;;;;;;;15.42;46.62;100350.09;5039942;28;1068;-48
2024/03/19 04:16:59;;;;;;;;;;;;;;;15.30;46.40;100351.84;5039446;28;1052;-46
2024/03/19 04:19:24;;;;;;;;;;;;;;;16.24;47.63;100350.19;5039626;28;1143;-47
2024/03/19 04:21:50;;;;;;;;;;;;;;;17.04;46.66;100358.09;5039625;28;1922;-46
2024/03/19 04:24:16;;;;;;;;;;;;;;;15.88;47.89;100367.00;5039592;28;1123;-46
2024/03/19 04:26:41;;;;;;;;;;;;;;;15.62;47.49;100369.81;5038925;28;1019;-51
2024/03/19 04:29:10;;;;;;;;;;;;;;;15.37;46.76;100369.00;5022180;28;1100;-50
2024/03/19 04:31:35;;;;;;;;;;;;;;;15.25;46.18;100373.41;5021808;28;1091;-50
2024/03/19 04:34:01;;;;;;;;;;;;;;;15.10;45.88;100379.84;5039256;28;1207;-49
2024/03/19 04:36:27;;;;;;;;;;;;;;;16.32;47.68;100387.59;5039245;28;1167;-52
2024/03/19 04:38:52;;;;;;;;;;;;;;;16.51;47.68;100378.19;5039062;28;1051;-47
2024/03/19 04:41:18;;;;;;;;;;;;;;;15.74;48.26;100373.34;5038860;28;1918;-49
2024/03/19 04:43:43;;;;;;;;;;;;;;;15.39;47.73;100382.13;5038842;28;1107;-49
2024/03/19 04:46:09;;;;;;;;;;;;;;;16.33;48.24;100381.31;5039333;28;1124;-48
2024/03/19 04:48:34;;;;;;;;;;;;;;;16.63;47.69;100390.50;5039024;28;1051;-49
2024/03/19 04:51:00;;;;;;;;;;;;;;;15.73;48.03;100384.91;5039202;28;1098;-49
2024/03/19 04:53:26;;;;;;;;;;;;;;;15.47;47.41;100389.50;5049648;28;1160;-53
2024/03/19 04:55:51;;;;;;;;;;;;;;;15.30;47.16;100391.59;5041059;28;1014;-47
2024/03/19 04:58:17;;;;;;;;;;;;;;;15.86;47.95;100389.31;5041281;28;1111;-48
2024/03/19 05:00:42;;;;;;;;;;;;;;;16.28;47.78;100388.81;5038533;28;1910;-48
2024/03/19 05:03:08;;;;;;;;;;;;;;;15.54;48.17;100388.97;5038631;28;1094;-48
2024/03/19 05:05:33;;;;;;;;;;;;;;;15.30;47.35;100389.81;5039001;28;1130;-48
2024/03/19 05:07:59;;;;;;;;;;;;;;;15.87;48.20;100393.63;5038404;28;1099;-48
2024/03/19 05:10:25;;;;;;;;;;;;;;;16.50;46.92;100387.97;5046783;28;1159;-55
2024/03/19 05:12:50;;;;;;;;;;;;;;;15.81;49.19;100394.09;5041527;28;1090;-50
2024/03/19 05:15:16;;;;;;;;;;;;;;;16.11;47.86;100396.28;5038587;28;1079;-49
2024/03/19 05:17:42;;;;;;;;;;;;;;;15.93;48.02;100387.88;5038234;28;1161;-53
2024/03/19 05:20:07;;;;;;;;;;;;;;;15.85;48.37;100392.94;5045563;28;1909;-47
2024/03/19 05:22:33;;;;;;;;;;;;;;;15.69;48.58;100404.69;5020815;28;1144;-49
2024/03/19 05:24:59;;;;;;;;;;;;;;;15.59;48.70;100403.66;5038338;28;1150;-49
2024/03/19 05:27:24;;;;;;;;;;;;;;;15.48;49.04;100392.03;5048095;28;1080;-51
2024/03/19 05:29:50;;;;;;;;;;;;;;;15.34;49.02;100406.34;5038675;28;1084;-52
2024/03/19 05:32:15;;;;;;;;;;;;;;;15.32;49.48;100402.94;5025283;28;1159;-50
2024/03/19 05:34:41;;;;;;;;;;;;;;;16.57;46.67;100403.41;5043239;28;1098;-47
2024/03/19 05:37:07;;;;;;;;;;;;;;;17.37;44.55;100406.84;5038497;28;1179;-50
2024/03/19 05:39:32;;;;;;;;;;;;;;;16.41;46.70;100404.63;5039696;28;1318;-50
2024/03/19 05:41:59;;;;;;;;;;;;;;;16.00;47.65;100407.69;5023050;28;1975;-52
2024/03/19 05:44:24;;;;;;;;;;;;;;;15.87;48.31;100409.56;5037737;28;1060;-47
2024/03/19 05:46:50;;;;;;;;;;;;;;;15.59;48.70;100412.47;5033010;28;1088;-49
2024/03/19 05:49:15;;;;;;;;;;;;;;;15.47;49.04;100414.22;5033101;28;1063;-48
2024/03/19 05:51:41;;;;;;;;;;;;;;;15.43;49.45;100424.19;5038096;28;1059;-48
2024/03/19 05:54:07;;;;;;;;;;;;;;;17.00;45.66;100417.75;5037913;28;1115;-46
2024/03/19 05:56:33;;;;;;;;;;;;;;;17.57;44.18;100422.09;5037525;28;1136;-47
2024/03/19 05:58:58;;;;;;;;;;;;;;;16.56;46.41;100429.16;5037606;28;1095;-47
2024/03/19 06:01:24;;;;;;;;;;;;;;;16.10;47.73;100425.59;5037587;28;1902;-50
2024/03/19 06:03:49;;;;;;;;;;;;;;;15.84;48.27;100431.00;5039232;28;1475;-47
2024/03/19 06:06:15;;;;;;;;;;;;;;;15.70;48.83;100426.75;5036421;28;1122;-48
2024/03/19 06:08:41;;;;;;;;;;;;;;;15.52;49.04;100424.47;5020705;28;1069;-49
2024/03/19 06:11:09;;;;;;;;;;;;;;;15.39;49.22;100427.19;5037898;28;1107;-52
2024/03/19 06:13:35;;;;;;;;;;;;;;;16.80;46.35;100436.13;5053787;28;909;-49
2024/03/19 06:16:01;;;;;;;;;;;;;;;17.73;44.08;100430.50;5038415;28;1111;-46
2024/03/19 06:18:27;;;;;;;;;;;;;;;16.79;45.77;100430.94;5033615;28;1100;-51
2024/03/19 06:20:52;;;;;;;;;;;;;;;16.10;47.63;100430.91;5021427;28;1969;-50
2024/03/19 06:23:18;;;;;;;;;;;;;;;15.95;47.80;100428.38;5031894;28;1193;-44
2024/03/19 06:25:43;;;;;;;;;;;;;;;15.67;48.77;100426.00;5036729;28;1202;-50
2024/03/19 06:28:09;;;;;;;;;;;;;;;15.57;49.04;100429.44;5034323;28;1321;-53
2024/03/19 06:30:35;;;;;;;;;;;;;;;15.38;49.40;100428.16;5029326;28;1032;-53
2024/03/19 06:33:01;;;;;;;;;;;;;;;15.34;49.47;100434.63;5035302;28;1095;-49
2024/03/19 06:35:28;;;;;;;;;;;;;;;16.84;46.17;100439.41;5036832;28;1479;-54
2024/03/19 06:37:54;;;;;;;;;;;;;;;17.60;44.19;100443.16;5041155;28;1247;-50
2024/03/19 06:40:21;;;;;;;;;;;;;;;16.58;46.63;100437.81;5035558;28;1903;-51
2024/03/19 06:42:46;;;;;;;;;;;;;;;16.02;47.63;100437.63;5034754;28;1321;-48
2024/03/19 06:45:12;;;;;;;;;;;;;;;15.76;48.27;100437.75;5014895;28;1367;-52
2024/03/19 06:47:37;;;;;;;;;;;;;;;15.61;48.96;100441.53;5023921;28;1279;-50
2024/03/19 06:50:06;;;;;;;;;;;;;;;15.45;49.04;100439.16;5048307;28;1400;-48
2024/03/19 06:52:35;;;;;;;;;;;;;;;15.94;48.49;100444.41;5036929;28;1121;-50
2024/03/19 06:55:01;;;;;;;;;;;;;;;17.34;44.96;100441.66;5033364;28;1285;-56
2024/03/19 06:57:27;;;;;;;;;;;;;;;16.94;45.51;100443.00;5033968;28;1385;-48
2024/03/19 06:59:53;;;;;;;;;;;;;;;16.22;47.02;100447.66;5021924;28;1975;-53
2024/03/19 07:02:18;;;;;;;;;;;;;;;15.87;48.18;100454.66;5025092;28;1025;-53
2024/03/19 07:04:45;;;;;;;;;;;;;;;15.74;48.44;100442.31;5029983;28;1132;-53
2024/03/19 07:07:13;;;;;;;;;;;;;;;15.52;49.17;100448.34;5032892;28;1330;-55
2024/03/19 07:09:41;;;;;;;;;;;;;;;15.84;48.55;100449.56;5037711;28;1116;-53
2024/03/19 07:12:07;;;;;;;;;;;;;;;17.29;45.14;100459.78;5029478;28;1143;-49
2024/03/19 07:14:34;;;;;;;;;;;;;;;16.93;45.62;100472.38;5019201;28;1119;-54
2024/03/19 07:17:00;;;;;;;;;;;;;;;16.17;47.57;100469.25;5034830;28;1277;-56
2024/03/19 07:19:26;;;;;;;;;;;;;;;15.87;48.23;100465.25;5032725;28;1533;-55
2024/03/19 07:21:51;;;;;;;;;;;;;;;15.71;48.72;100468.22;5037955;28;1910;-53
2024/03/19 07:24:17;;;;;;;;;;;;;;;15.57;49.02;100467.41;5030988;28;1400;-56
2024/03/19 07:26:42;;;;;;;;;;;;;;;16.45;47.12;100466.31;5029433;28;1427;-55
2024/03/19 07:29:08;;;;;;;;;;;;;;;17.58;44.49;100467.19;5032921;28;1310;-54
2024/03/19 07:31:34;;;;;;;;;;;;;;;16.80;45.97;100472.50;5034338;28;1542;-50
2024/03/19 07:33:59;;;;;;;;;;;;;;;16.12;47.49;100464.28;5035046;28;1337;-52
2024/03/19 07:36:25;;;;;;;;;;;;;;;15.96;47.86;100469.03;5036215;28;1420;-52
2024/03/19 07:38:50;;;;;;;;;;;;;;;15.77;48.61;100478.34;5036581;28;1281;-55
2024/03/19 07:41:17;;;;;;;;;;;;;;;15.59;49.06;100477.91;5036196;28;1985;-49
2024/03/19 07:43:42;;;;;;;;;;;;;;;15.87;48.45;100478.53;5035985;28;1155;-49
2024/03/19 07:46:08;;;;;;;;;;;;;;;17.28;45.08;100479.38;5036235;28;1105;-53
2024/03/19 07:48:34;;;;;;;;;;;;;;;17.01;45.39;100481.44;5035628;28;1204;-50
2024/03/19 07:51:00;;;;;;;;;;;;;;;16.26;47.10;100481.84;5035705;28;1317;-52
2024/03/19 07:53:26;;;;;;;;;;;;;;;15.97;48.08;100482.19;5024369;28;1041;-55
2024/03/19 07:55:52;;;;;;;;;;;;;;;15.68;48.76;100482.56;5038226;28;1080;-51
2024/03/19 07:58:18;;;;;;;;;;;;;;;15.57;48.75;100490.44;5023184;28;1333;-53
2024/03/19 08:00:43;;;;;;;;;;;;;;;15.85;48.61;100491.91;5035300;28;1899;-50
2024/03/19 08:03:09;;;;;;;;;;;;;;;17.29;44.99;100490.84;5027570;28;929;-53
2024/03/19 08:05:35;;;;;;;;;;;;;;;17.15;45.05;100487.47;5030068;28;1380;-49
2024/03/19 08:08:02;;;;;;;;;;;;;;;16.32;47.06;100482.31;5030257;28;1282;-49
2024/03/19 08:10:27;;;;;;;;;;;;;;;15.92;48.13;100484.34;5034863;28;1329;-54
2024/03/19 08:12:53;;;;;;;;;;;;;;;15.76;48.57;100485.50;5035107;28;1199;-54
2024/03/19 08:15:18;;;;;;;;;;;;;;;15.63;48.88;100482.88;5035145;28;1254;-52
2024/03/19 08:17:44;;;;;;;;;;;;;;;15.36;49.23;100481.28;5035577;28;1270;-53
2024/03/19 08:20:13;;;;;;;;;;;;;;;16.86;46.13;100483.50;5034640;28;1906;-46
2024/03/19 08:22:41;;;;;;;;;;;;;;;17.38;44.57;100476.81;5032574;28;1168;-52
2024/03/19 08:25:09;;;;;;;;;;;;;;;16.35;46.97;100482.94;5034923;28;1211;-52
2024/03/19 08:27:35;;;;;;;;;;;;;;;15.95;48.19;100470.00;5034930;28;1033;-51
2024/03/19 08:30:01;;;;;;;;;;;;;;;15.76;48.53;100485.50;5035774;28;1122;-56
2024/03/19 08:32:27;;;;;;;;;;;;;;;15.59;49.18;100478.75;5035436;28;1148;-54
2024/03/19 08:34:53;;;;;;;;;;;;;;;15.41;49.48;100479.13;5034441;28;1195;-55
2024/03/19 08:37:18;;;;;;;;;;;;;;;16.57;47.11;100478.63;5031289;28;1110;-56
2024/03/19 08:39:44;;;;;;;;;;;;;;;17.62;44.40;100481.94;5035850;28;1220;-56
2024/03/19 08:42:09;;;;;;;;;;;;;;;16.78;45.89;100480.59;5037179;28;1973;-56
2024/03/19 08:44:35;;;;;;;;;;;;;;;16.11;47.73;100478.53;5036219;28;1163;-56
2024/03/19 08:47:01;;;;;;;;;;;;;;;15.94;48.41;100485.06;5035597;28;1228;-56
2024/03/19 08:49:27;;;;;;;;;;;;;;;15.76;48.59;100484.63;5040030;28;1342;-55
2024/03/19 08:51:53;;;;;;;;;;;;;;;15.57;48.72;100479.81;5035474;28;1345;-56
2024/03/19 08:54:19;;;;;;;;;;;;;;;15.45;49.54;100478.94;5037796;28;1235;-55
2024/03/19 08:56:44;;;;;;;;;;;;;;;17.00;46.09;100481.53;5028461;28;1212;-55
2024/03/19 08:59:10;;;;;;;;;;;;;;;17.27;44.94;100484.81;5028142;28;1082;-56
2024/03/19 09:01:35;;;;;;;;;;;;;;;16.36;47.14;100474.03;5030459;28;1971;-56
2024/03/19 09:04:03;;;;;;;;;;;;;;;15.94;48.25;100474.47;5021296;28;1064;-54
2024/03/19 09:06:32;;;;;;;;;;;;;;;15.78;48.51;100480.06;5024747;28;1226;-56
2024/03/19 09:08:58;;;;;;;;;;;;;;;15.59;49.28;100476.13;5038768;28;1051;-56
2024/03/19 09:11:23;;;;;;;;;;;;;;;15.45;49.39;100471.81;5037863;28;1126;-54
2024/03/19 09:13:49;;;;;;;;;;;;;;;15.86;48.87;100475.03;5026274;28;1144;-53
2024/03/19 09:16:15;;;;;;;;;;;;;;;17.26;45.42;100476.00;5037977;28;1239;-56
2024/03/19 09:18:42;;;;;;;;;;;;;;;17.15;45.18;100474.16;5028161;28;1372;-56
2024/03/19 09:21:08;;;;;;;;;;;;;;;16.31;47.36;100464.69;5028159;28;1906;-55
2024/03/19 09:23:34;;;;;;;;;;;;;;;15.99;48.08;100471.50;5038273;28;1083;-56
2024/03/19 09:26:00;;;;;;;;;;;;;;;15.79;48.80;100473.78;5029891;28;1123;-55
2024/03/19 09:28:29;;;;;;;;;;;;;;;15.64;49.17;100478.41;5033360;28;1044;-56
2024/03/19 09:30:54;;;;;;;;;;;;;;;15.42;49.41;100472.03;5037931;28;1004;-56
2024/03/19 09:33:22;;;;;;;;;;;;;;;16.09;48.08;100469.84;5038199;28;1058;-56
2024/03/19 09:35:47;;;;;;;;;;;;;;;17.38;45.00;100476.81;5031885;28;1127;-56
2024/03/19 09:38:15;;;;;;;;;;;;;;;16.83;45.90;100478.38;5021395;28;1016;-57
2024/03/19 09:40:42;;;;;;;;;;;;;;;16.21;47.67;100469.88;5037247;28;1902;-56
2024/03/19 09:43:08;;;;;;;;;;;;;;;15.91;48.58;100456.94;5006761;28;1044;-56
2024/03/19 09:45:34;;;;;;;;;;;;;;;15.79;48.66;100465.84;5024204;28;1016;-55
2024/03/19 09:48:00;;;;;;;;;;;;;;;15.64;49.07;100466.03;5044156;28;1099;-55
2024/03/19 09:50:26;;;;;;;;;;;;;;;15.48;49.55;100462.81;5052812;28;1071;-56
2024/03/19 09:52:52;;;;;;;;;;;;;;;16.47;47.64;100461.69;5037154;28;1004;-54
2024/03/19 09:55:17;;;;;;;;;;;;;;;17.56;44.65;100462.97;5037420;28;1060;-56
2024/03/19 09:57:45;;;;;;;;;;;;;;;16.73;46.35;100466.81;5037819;28;1056;-55
2024/03/19 10:00:18;;;;;;;;;;;;;;;16.18;47.79;100462.16;5037108;28;1971;-55
2024/03/19 10:02:44;;;;;;;;;;;;;;;15.91;48.50;100462.25;5052779;28;1281;-55
2024/03/19 10:05:12;;;;;;;;;;;;;;;15.69;49.05;100462.16;5037712;28;1110;-54
2024/03/19 10:07:38;;;;;;;;;;;;;;;15.49;49.22;100477.75;5037131;28;1139;-56
2024/03/19 10:10:06;;;;;;;;;;;;;;;15.47;49.56;100464.59;5037643;28;1139;-55
2024/03/19 10:12:32;;;;;;;;;;;;;;;16.98;46.16;100465.69;5037092;28;1240;-56
2024/03/19 10:14:58;;;;;;;;;;;;;;;17.20;45.33;100468.50;5037460;28;1040;-55
2024/03/19 10:17:24;;;;;;;;;;;;;;;16.42;47.33;100464.72;5030636;28;1372;-54
2024/03/19 10:19:52;;;;;;;;;;;;;;;16.02;48.07;100461.50;5051004;28;1222;-57
2024/03/19 10:22:18;;;;;;;;;;;;;;;15.81;48.75;100457.75;5035289;28;1910;-57
2024/03/19 10:24:46;;;;;;;;;;;;;;;15.62;49.34;100462.63;5051883;28;1318;-56
2024/03/19 10:27:13;;;;;;;;;;;;;;;15.51;49.24;100463.44;5042701;28;1120;-57
2024/03/19 10:29:39;;;;;;;;;;;;;;;15.50;49.49;100455.56;5016111;28;1174;-56
2024/03/19 10:32:06;;;;;;;;;;;;;;;17.04;46.13;100463.53;5041298;28;912;-57
2024/03/19 10:34:32;;;;;;;;;;;;;;;17.48;44.85;100458.28;5028550;28;1234;-56
2024/03/19 10:36:57;;;;;;;;;;;;;;;16.43;47.14;100468.22;5036287;28;1160;-56
2024/03/19 10:39:24;;;;;;;;;;;;;;;16.04;48.09;100466.69;5035165;28;1137;-55
2024/03/19 10:41:51;;;;;;;;;;;;;;;15.81;48.68;100471.03;5035953;28;1981;-56
2024/03/19 10:44:19;;;;;;;;;;;;;;;15.57;49.12;100464.75;5036187;28;1291;-55
2024/03/19 10:46:45;;;;;;;;;;;;;;;15.41;49.66;100465.06;5035886;28;1286;-58
2024/03/19 10:49:15;;;;;;;;;;;;;;;16.70;46.85;100462.56;5035972;28;1235;-56
2024/03/19 10:52:01;;;;;;;;;;;;;;;17.72;44.46;100463.41;5033231;28;1318;-55
2024/03/19 10:54:27;;;;;;;;;;;;;;;16.58;46.84;100463.53;5032980;28;1306;-53
2024/03/19 10:56:53;;;;;;;;;;;;;;;16.14;47.97;100465.03;5047910;28;1139;-56
2024/03/19 10:59:18;;;;;;;;;;;;;;;15.83;48.60;100463.81;5028919;28;1337;-56
2024/03/19 11:01:47;;;;;;;;;;;;;;;15.64;49.01;100466.03;5035705;28;1967;-54
2024/03/19 11:04:14;;;;;;;;;;;;;;;15.54;49.26;100468.50;5036564;28;1226;-55
2024/03/19 11:06:40;;;;;;;;;;;;;;;15.98;48.46;100467.13;5036252;28;1176;-55
2024/03/19 11:09:14;;;;;;;;;;;;;;;17.36;45.19;100473.44;5036201;28;1088;-55
2024/03/19 11:11:41;;;;;;;;;;;;;;;17.20;45.39;100477.31;5018643;28;1282;-56
2024/03/19 11:14:06;;;;;;;;;;;;;;;16.35;47.54;100479.44;5018053;28;1290;-55
2024/03/19 11:16:38;;;;;;;;;;;;;;;16.07;48.24;100465.59;5036135;28;1118;-55
2024/03/19 11:19:14;;;;;;;;;;;;;;;15.81;48.69;100474.53;5030954;28;1267;-56
2024/03/19 11:21:40;;;;;;;;;;;;;;;15.62;48.90;100465.28;5043597;28;1898;-56
2024/03/19 11:24:15;;;;;;;;;;;;;;;15.54;49.46;100463.19;5036102;28;1417;-55
2024/03/19 11:26:41;;;;;;;;;;;;;;;16.52;47.08;100478.13;5051113;28;1320;-58
2024/03/19 11:29:08;;;;;;;;;;;;;;;17.56;44.77;100490.44;5031822;28;1131;-55
2024/03/19 11:31:38;;;;;;;;;;;;;;;16.53;46.84;100479.84;5035135;28;1116;-54
2024/03/19 11:34:04;;;;;;;;;;;;;;;16.06;47.99;100482.50;5035306;28;1251;-55
2024/03/19 11:36:30;;;;;;;;;;;;;;;15.85;48.62;100483.13;5034990;28;1143;-56
2024/03/19 11:38:55;;;;;;;;;;;;;;;15.68;48.95;100490.50;5035805;28;1205;-55
2024/03/19 11:41:21;;;;;;;;;;;;;;;15.50;49.36;100492.66;5035352;28;1906;-55
2024/03/19 11:43:46;;;;;;;;;;;;;;;15.83;49.12;100498.28;5047129;28;1104;-55
2024/03/19 11:46:13;;;;;;;;;;;;;;;17.23;45.85;100498.34;5017845;28;1055;-55
2024/03/19 11:48:39;;;;;;;;;;;;;;;17.20;45.52;100487.13;5035453;28;1044;-56
2024/03/19 11:51:04;;;;;;;;;;;;;;;16.36;47.69;100481.97;5017976;28;1008;-55
2024/03/19 11:53:30;;;;;;;;;;;;;;;16.04;48.13;100482.59;5034856;28;1040;-55
2024/03/19 11:55:56;;;;;;;;;;;;;;;15.83;48.73;100485.84;5019611;28;1020;-55
2024/03/19 11:58:24;;;;;;;;;;;;;;;15.63;49.05;100482.88;5029196;28;1083;-56
2024/03/19 12:00:49;;;;;;;;;;;;;;;15.46;49.55;100492.06;5034913;28;1973;-55
2024/03/19 12:03:16;;;;;;;;;;;;;;;15.75;49.58;100497.03;5053873;28;1149;-53
2024/03/19 12:05:45;;;;;;;;;;;;;;;17.23;45.86;100508.97;5035327;28;1005;-53
2024/03/19 12:08:10;;;;;;;;;;;;;;;17.11;45.78;100505.50;5045537;28;1098;-55
2024/03/19 12:10:36;;;;;;;;;;;;;;;16.35;47.60;100498.03;5038724;28;1056;-57
2024/03/19 12:13:02;;;;;;;;;;;;;;;15.99;48.39;100500.66;5039017;28;1108;-58
2024/03/19 12:15:27;;;;;;;;;;;;;;;15.75;48.99;100499.69;5037328;28;1286;-57
2024/03/19 12:17:53;;;;;;;;;;;;;;;15.55;49.62;100491.38;5036061;28;1320;-57
2024/03/19 12:20:19;;;;;;;;;;;;;;;15.40;49.73;100498.66;5039031;28;1975;-58
2024/03/19 12:22:48;;;;;;;;;;;;;;;16.89;46.88;100501.84;5049759;28;1118;-57
2024/03/19 12:25:13;;;;;;;;;;;;;;;17.47;44.91;100507.97;5036275;28;1049;-56
2024/03/19 12:27:39;;;;;;;;;;;;;;;16.44;47.37;100509.72;5025723;28;1155;-57
2024/03/19 12:30:07;;;;;;;;;;;;;;;16.07;48.40;100514.22;5038861;28;1298;-57
2024/03/19 12:33:10;;;;;;;;;;;;;;;15.76;48.93;100516.47;5020700;28;1173;-56
2024/03/19 12:35:24;;;;;;;;;;;;;;;15.60;49.20;100514.91;5035155;28;1268;-57
2024/03/19 12:37:50;;;;;;;;;;;;;;;15.40;49.79;100514.56;5036029;28;1159;-57
2024/03/19 12:40:18;;;;;;;;;;;;;;;16.91;46.60;100516.81;5035915;28;1977;-56
2024/03/19 12:42:45;;;;;;;;;;;;;;;17.31;45.46;100519.00;5011440;28;1341;-56